createdAt,value
2023-02-05T00:00:02.350Z,-10.39
2023-02-05T00:02:32.245Z,-10.36
2023-02-05T00:04:59.799Z,-10.20
2023-02-05T00:07:27.691Z,-10.10
2023-02-05T00:09:55.163Z,-10.08
2023-02-05T00:12:22.680Z,-10.06
2023-02-05T00:14:50.391Z,-10.20
2023-02-05T00:17:17.905Z,-10.06
2023-02-05T00:19:45.498Z,-10.10
2023-02-05T00:22:12.995Z,-10.09
2023-02-05T00:24:40.520Z,-9.97
2023-02-05T00:27:08.361Z,-9.95
2023-02-05T00:29:36.020Z,-9.83
2023-02-05T00:32:03.742Z,-9.77
2023-02-05T00:34:31.436Z,-9.76
2023-02-05T00:36:58.917Z,-9.79
2023-02-05T00:39:26.372Z,-9.66
2023-02-05T00:41:53.984Z,-9.61
2023-02-05T00:44:21.477Z,-9.51
2023-02-05T00:46:48.893Z,-9.61
2023-02-05T00:49:16.441Z,-9.67
2023-02-05T00:51:43.990Z,-9.73
2023-02-05T00:54:11.639Z,-9.67
2023-02-05T00:56:39.077Z,-9.79
2023-02-05T00:59:06.614Z,-9.66
2023-02-05T01:01:34.163Z,-9.58
2023-02-05T01:04:01.726Z,-9.49
2023-02-05T01:06:29.452Z,-9.38
2023-02-05T01:08:56.967Z,-9.31
2023-02-05T01:11:24.477Z,-9.30
2023-02-05T01:13:51.931Z,-9.45
2023-02-05T01:16:19.577Z,-9.39
2023-02-05T01:18:47.170Z,-9.47
2023-02-05T01:21:14.727Z,-9.41
2023-02-05T01:23:42.269Z,-9.27
2023-02-05T01:26:09.707Z,-9.14
2023-02-05T01:28:37.167Z,-9.07
2023-02-05T01:31:04.800Z,-9.16
2023-02-05T01:33:32.433Z,-9.19
2023-02-05T01:35:59.991Z,-9.75
2023-02-05T01:38:27.425Z,-9.75
2023-02-05T01:40:54.967Z,-9.79
2023-02-05T01:43:22.534Z,-9.68
2023-02-05T01:46:11.171Z,-9.62
2023-02-05T01:48:44.675Z,-9.60
2023-02-05T01:51:15.150Z,-9.65
2023-02-05T01:53:47.283Z,-9.56
2023-02-05T01:56:24.509Z,-9.45
2023-02-05T01:58:57.238Z,-9.54
2023-02-05T02:01:26.932Z,-9.47
2023-02-05T02:03:58.463Z,-9.41
2023-02-05T02:06:26.045Z,-9.34
2023-02-05T02:08:53.853Z,-9.27
2023-02-05T02:11:23.671Z,-9.14
2023-02-05T02:13:55.185Z,-9.06
2023-02-05T02:16:25.216Z,-9.02
2023-02-05T02:18:55.685Z,-8.95
2023-02-05T02:21:51.829Z,-8.77
2023-02-05T02:24:25.030Z,-8.69
2023-02-05T02:27:22.914Z,-8.57
2023-02-05T02:30:04.880Z,-8.49
2023-02-05T02:32:43.966Z,-8.36
2023-02-05T02:35:17.623Z,-8.24
2023-02-05T02:38:08.333Z,-8.12
2023-02-05T02:40:42.801Z,-8.13
2023-02-05T02:43:25.741Z,-8.07
2023-02-05T02:46:01.822Z,-8.09
2023-02-05T02:48:32.552Z,-8.15
2023-02-05T02:51:02.535Z,-8.34
2023-02-05T02:53:36.308Z,-8.21
2023-02-05T02:56:06.014Z,-8.24
2023-02-05T02:58:47.205Z,-8.14
2023-02-05T03:01:17.819Z,-8.37
2023-02-05T03:03:51.816Z,-8.34
2023-02-05T03:06:23.280Z,-8.37
2023-02-05T03:09:07.699Z,-8.37
2023-02-05T03:11:35.366Z,-8.35
2023-02-05T03:14:03.074Z,-8.40
2023-02-05T03:16:35.515Z,-8.37
2023-02-05T03:19:05.794Z,-8.32
2023-02-05T03:21:43.013Z,-8.35
2023-02-05T03:24:11.297Z,-8.30
2023-02-05T03:26:39.036Z,-8.37
2023-02-05T03:29:15.156Z,-8.29
2023-02-05T03:32:05.315Z,-8.28
2023-02-05T03:35:07.472Z,-8.24
2023-02-05T03:38:03.240Z,-8.18
2023-02-05T03:40:34.142Z,-8.21
2023-02-05T03:43:16.223Z,-8.19
2023-02-05T03:46:00.377Z,-8.18
2023-02-05T03:48:48.817Z,-8.26
2023-02-05T03:51:40.403Z,-8.19
2023-02-05T03:54:17.340Z,-8.20
2023-02-05T03:57:23.252Z,-8.07
2023-02-05T03:59:56.288Z,-8.08
2023-02-05T04:02:24.696Z,-8.12
2023-02-05T04:04:54.981Z,-8.13
2023-02-05T04:07:22.674Z,-8.10
2023-02-05T04:09:50.186Z,-8.14
2023-02-05T04:12:17.829Z,-8.10
2023-02-05T04:14:47.516Z,-8.11
2023-02-05T04:17:15.061Z,-8.03
2023-02-05T04:19:43.465Z,-8.09
2023-02-05T04:22:12.889Z,-8.00
2023-02-05T04:24:44.269Z,-7.87
2023-02-05T04:27:11.926Z,-7.64
2023-02-05T04:29:40.032Z,-7.43
2023-02-05T04:32:07.678Z,-7.14
2023-02-05T04:34:35.537Z,-6.86
2023-02-05T04:37:04.202Z,-6.46
2023-02-05T04:39:31.960Z,-6.13
2023-02-05T04:41:59.817Z,-5.59
2023-02-05T04:44:27.383Z,-4.99
2023-02-05T04:46:54.904Z,-4.75
2023-02-05T04:49:22.548Z,-4.40
2023-02-05T04:51:50.123Z,-4.03
2023-02-05T04:54:17.588Z,-3.88
2023-02-05T04:56:45.068Z,-3.27
2023-02-05T04:59:12.540Z,-3.01
2023-02-05T05:01:40.988Z,-2.60
2023-02-05T05:04:09.612Z,-2.05
2023-02-05T05:06:37.067Z,-1.85
2023-02-05T05:09:04.708Z,-1.26
2023-02-05T05:11:32.265Z,-0.86
2023-02-05T05:13:59.704Z,-0.54
2023-02-05T05:16:27.186Z,-0.01
2023-02-05T05:18:54.632Z,0.50
2023-02-05T05:21:22.271Z,0.85
2023-02-05T05:23:49.803Z,1.34
2023-02-05T05:26:17.278Z,1.63
2023-02-05T05:28:44.767Z,1.75
2023-02-05T05:31:22.730Z,2.09
2023-02-05T05:33:51.477Z,2.69
2023-02-05T05:36:19.262Z,2.97
2023-02-05T05:38:46.782Z,3.56
2023-02-05T05:41:39.629Z,3.60
2023-02-05T05:44:07.399Z,4.13
2023-02-05T05:46:35.333Z,4.53
2023-02-05T05:49:03.580Z,4.71
2023-02-05T05:51:32.841Z,5.01
2023-02-05T05:54:00.508Z,5.14
2023-02-05T05:56:28.134Z,5.38
2023-02-05T05:58:55.694Z,5.51
2023-02-05T06:01:23.363Z,5.67
2023-02-05T06:03:50.892Z,5.86
2023-02-05T06:06:18.512Z,5.83
2023-02-05T06:08:46.078Z,5.87
2023-02-05T06:11:13.878Z,5.87
2023-02-05T06:13:42.129Z,6.10
2023-02-05T06:16:09.755Z,6.28
2023-02-05T06:18:37.714Z,6.44
2023-02-05T06:21:06.201Z,6.71
2023-02-05T06:23:34.739Z,6.80
2023-02-05T06:26:02.554Z,7.12
2023-02-05T06:28:30.060Z,7.26
2023-02-05T06:30:57.748Z,7.65
2023-02-05T06:33:25.531Z,8.00
2023-02-05T06:35:53.161Z,8.52
2023-02-05T06:38:20.728Z,8.83
2023-02-05T06:40:49.301Z,9.09
2023-02-05T06:43:17.022Z,9.13
2023-02-05T06:45:44.610Z,9.07
2023-02-05T06:48:12.195Z,9.29
2023-02-05T06:50:39.706Z,9.40
2023-02-05T06:53:07.360Z,9.60
2023-02-05T06:55:35.295Z,9.89
2023-02-05T06:58:03.241Z,10.10
2023-02-05T07:00:32.513Z,10.87
2023-02-05T07:03:00.335Z,11.20
2023-02-05T07:05:28.020Z,11.16
2023-02-05T07:07:55.626Z,11.69
2023-02-05T07:10:23.290Z,11.74
2023-02-05T07:12:50.792Z,11.69
2023-02-05T07:15:18.279Z,11.60
2023-02-05T07:17:45.788Z,11.65
2023-02-05T07:20:13.283Z,11.55
2023-02-05T07:22:40.826Z,11.48
2023-02-05T07:25:08.920Z,11.57
2023-02-05T07:27:36.400Z,11.54
2023-02-05T07:30:04.318Z,11.52
2023-02-05T07:32:32.005Z,11.35
2023-02-05T07:34:59.483Z,11.19
2023-02-05T07:37:27.120Z,11.02
2023-02-05T07:39:54.631Z,10.83
2023-02-05T07:42:22.220Z,10.68
2023-02-05T07:44:56.420Z,10.54
2023-02-05T07:47:23.907Z,10.35
2023-02-05T07:49:51.435Z,10.13
2023-02-05T07:52:18.980Z,10.04
2023-02-05T07:54:46.465Z,9.82
2023-02-05T07:57:14.004Z,9.54
2023-02-05T07:59:41.540Z,9.22
2023-02-05T08:02:11.788Z,9.06
2023-02-05T08:04:39.411Z,8.74
2023-02-05T08:07:07.064Z,8.51
2023-02-05T08:09:34.641Z,8.07
2023-02-05T08:12:02.102Z,7.65
2023-02-05T08:14:31.463Z,7.31
2023-02-05T08:16:59.755Z,6.96
2023-02-05T08:19:27.286Z,6.46
2023-02-05T08:21:54.801Z,5.85
2023-02-05T08:24:22.311Z,5.58
2023-02-05T08:26:49.762Z,5.15
2023-02-05T08:29:17.271Z,4.66
2023-02-05T08:31:44.798Z,4.48
2023-02-05T08:34:12.425Z,4.07
2023-02-05T08:36:40.214Z,3.91
2023-02-05T08:39:07.836Z,3.50
2023-02-05T08:41:37.151Z,3.05
2023-02-05T08:44:04.981Z,2.79
2023-02-05T08:46:47.556Z,2.63
2023-02-05T08:49:17.737Z,2.33
2023-02-05T08:51:45.428Z,2.32
2023-02-05T08:54:13.602Z,2.29
2023-02-05T08:56:43.577Z,1.85
2023-02-05T08:59:12.109Z,1.63
2023-02-05T09:01:43.299Z,1.33
2023-02-05T09:04:19.225Z,1.29
2023-02-05T09:06:47.253Z,0.88
2023-02-05T09:09:15.248Z,0.90
2023-02-05T09:11:43.097Z,0.81
2023-02-05T09:14:10.925Z,0.39
2023-02-05T09:16:38.665Z,0.44
2023-02-05T09:19:06.612Z,0.49
2023-02-05T09:21:34.620Z,0.48
2023-02-05T09:24:02.164Z,0.28
2023-02-05T09:26:29.584Z,0.09
2023-02-05T09:28:58.314Z,0.19
2023-02-05T09:31:25.936Z,0.11
2023-02-05T09:33:53.460Z,0.28
2023-02-05T09:36:23.033Z,0.19
2023-02-05T09:38:59.168Z,0.12
2023-02-05T09:41:47.981Z,0.26
2023-02-05T09:44:50.699Z,0.33
2023-02-05T09:47:33.195Z,0.39
2023-02-05T09:50:15.546Z,0.27
2023-02-05T09:52:48.033Z,0.15
2023-02-05T09:55:15.427Z,0.16
2023-02-05T09:57:43.568Z,0.11
2023-02-05T10:00:34.100Z,0.23
2023-02-05T10:03:18.202Z,0.07
2023-02-05T10:06:10.640Z,0.08
2023-02-05T10:08:57.428Z,-0.14
2023-02-05T10:11:52.551Z,-0.24
2023-02-05T10:14:35.980Z,-0.20
2023-02-05T10:17:09.399Z,-0.28
2023-02-05T10:19:48.708Z,-0.15
2023-02-05T10:22:34.906Z,-0.30
2023-02-05T10:25:30.215Z,-0.33
2023-02-05T10:28:05.272Z,-0.43
2023-02-05T10:30:53.011Z,-0.22
2023-02-05T10:33:43.653Z,-0.28
2023-02-05T10:36:12.879Z,-0.32
2023-02-05T10:38:46.136Z,-0.26
2023-02-05T10:41:26.589Z,-0.24
2023-02-05T10:44:17.303Z,-0.25
2023-02-05T10:46:53.412Z,-0.42
2023-02-05T10:49:27.719Z,-0.41
2023-02-05T10:51:55.495Z,-0.58
2023-02-05T10:54:31.714Z,-0.66
2023-02-05T10:57:00.196Z,-0.77
2023-02-05T10:59:30.978Z,-0.77
2023-02-05T11:02:03.378Z,-0.80
2023-02-05T11:04:39.864Z,-0.80
2023-02-05T11:07:14.004Z,-0.75
2023-02-05T11:09:41.877Z,-0.84
2023-02-05T11:12:23.147Z,-0.85
2023-02-05T11:14:59.320Z,-1.03
2023-02-05T11:17:43.641Z,-0.96
2023-02-05T11:20:17.327Z,-1.00
2023-02-05T11:22:48.767Z,-1.12
2023-02-05T11:25:49.848Z,-1.19
2023-02-05T11:28:32.776Z,-1.23
2023-02-05T11:31:21.453Z,-1.25
2023-02-05T11:34:05.958Z,-1.43
2023-02-05T11:36:50.880Z,-1.63
2023-02-05T11:39:40.495Z,-1.77
2023-02-05T11:42:16.661Z,-1.78
2023-02-05T11:44:52.257Z,-1.73
2023-02-05T11:47:36.217Z,-1.77
2023-02-05T11:50:06.217Z,-2.00
2023-02-05T11:52:37.765Z,-2.03
2023-02-05T11:55:06.801Z,-2.11
2023-02-05T11:57:38.858Z,-2.38
2023-02-05T12:00:09.423Z,-2.18
2023-02-05T12:02:38.830Z,-2.35
2023-02-05T12:05:12.636Z,-2.30
2023-02-05T12:07:58.857Z,-2.35
2023-02-05T12:10:52.664Z,-2.43
2023-02-05T12:13:38.973Z,-2.57
2023-02-05T12:16:19.996Z,-2.86
2023-02-05T12:19:21.134Z,-2.89
2023-02-05T12:22:02.718Z,-2.97
2023-02-05T12:24:47.896Z,-2.80
2023-02-05T12:28:00.488Z,-2.85
2023-02-05T12:30:58.400Z,-2.88
2023-02-05T12:33:54.428Z,-2.96
2023-02-05T12:36:22.191Z,-3.18
2023-02-05T12:39:11.230Z,-3.09
2023-02-05T12:41:56.743Z,-3.05
2023-02-05T12:44:24.379Z,-3.15
2023-02-05T12:47:06.296Z,-3.11
2023-02-05T12:49:54.888Z,-3.19
2023-02-05T12:52:38.939Z,-3.46
2023-02-05T12:55:14.808Z,-3.38
2023-02-05T12:57:49.408Z,-3.48
2023-02-05T13:00:33.218Z,-3.64
2023-02-05T13:03:18.956Z,-3.75
2023-02-05T13:05:52.598Z,-3.91
2023-02-05T13:08:49.426Z,-3.83
2023-02-05T13:11:42.173Z,-3.85
2023-02-05T13:14:14.833Z,-3.96
2023-02-05T13:17:05.370Z,-3.87
2023-02-05T13:19:41.419Z,-3.93
2023-02-05T13:22:37.318Z,-4.05
2023-02-05T13:26:00.955Z,-3.90
2023-02-05T13:28:43.495Z,-3.93
2023-02-05T13:31:29.779Z,-4.01
2023-02-05T13:34:03.963Z,-4.04
2023-02-05T13:37:02.357Z,-4.06
2023-02-05T13:39:48.636Z,-4.18
2023-02-05T13:42:19.098Z,-4.24
2023-02-05T13:45:05.354Z,-4.05
2023-02-05T13:47:57.234Z,-3.99
2023-02-05T13:50:33.948Z,-3.87
2023-02-05T13:53:38.842Z,-3.71
2023-02-05T13:56:47.627Z,-3.57
2023-02-05T13:59:23.850Z,-3.52
2023-02-05T14:01:56.536Z,-3.51
2023-02-05T14:04:55.090Z,-3.40
2023-02-05T14:07:30.049Z,-3.37
2023-02-05T14:10:01.409Z,-3.39
2023-02-05T14:12:41.050Z,-3.15
2023-02-05T14:15:20.344Z,-3.21
2023-02-05T14:17:47.865Z,-3.32
2023-02-05T14:20:44.923Z,-3.17
2023-02-05T14:23:37.920Z,-3.06
2023-02-05T14:26:08.671Z,-3.13
2023-02-05T14:28:44.479Z,-3.25
2023-02-05T14:31:49.388Z,-3.22
2023-02-05T14:34:45.411Z,-3.26
2023-02-05T14:37:32.668Z,-3.35
2023-02-05T14:40:27.386Z,-3.40
2023-02-05T14:43:15.856Z,-3.37
2023-02-05T14:45:54.209Z,-3.35
2023-02-05T14:48:45.744Z,-3.42
2023-02-05T14:51:28.230Z,-3.51
2023-02-05T14:54:02.360Z,-3.48
2023-02-05T14:56:49.161Z,-3.45
2023-02-05T14:59:57.083Z,-3.37
2023-02-05T15:06:42.965Z,-3.67
2023-02-05T15:09:34.522Z,-3.48
2023-02-05T15:12:23.388Z,-3.42
2023-02-05T15:15:00.882Z,-3.46
2023-02-05T15:17:35.617Z,-3.64
2023-02-05T15:20:21.507Z,-3.64
2023-02-05T15:23:01.156Z,-3.63
2023-02-05T15:26:16.164Z,-3.56
2023-02-05T15:29:20.760Z,-3.63
2023-02-05T15:32:29.956Z,-3.60
2023-02-05T15:35:05.495Z,-3.55
2023-02-05T15:37:41.348Z,-3.64
2023-02-05T15:40:33.859Z,-3.70
2023-02-05T15:43:12.500Z,-3.53
2023-02-05T15:45:45.281Z,-3.68
2023-02-05T15:48:25.154Z,-3.62
2023-02-05T15:51:03.269Z,-3.57
2023-02-05T15:53:37.540Z,-3.52
2023-02-05T15:56:29.967Z,-3.46
2023-02-05T15:59:02.320Z,-3.47
2023-02-05T16:01:36.772Z,-3.31
2023-02-05T16:04:18.181Z,-3.12
2023-02-05T16:06:45.952Z,-3.06
2023-02-05T16:09:25.381Z,-2.94
2023-02-05T16:12:25.659Z,-2.81
2023-02-05T16:15:01.800Z,-2.71
2023-02-05T16:17:36.588Z,-2.64
2023-02-05T16:20:36.629Z,-2.46
2023-02-05T16:23:36.781Z,-2.39
2023-02-05T16:26:15.645Z,-2.38
2023-02-05T16:28:54.686Z,-2.30
2023-02-05T16:31:25.644Z,-2.23
2023-02-05T16:33:55.583Z,-2.17
2023-02-05T16:36:26.115Z,-2.07
2023-02-05T16:39:15.176Z,-1.96
2023-02-05T16:42:26.912Z,-1.88
2023-02-05T16:45:11.095Z,-1.85
2023-02-05T16:47:38.856Z,-1.78
2023-02-05T16:50:44.792Z,-1.67
2023-02-05T16:53:21.325Z,-1.64
2023-02-05T16:55:50.307Z,-1.64
2023-02-05T16:58:24.050Z,-1.64
2023-02-05T17:00:57.763Z,-1.56
2023-02-05T17:03:28.389Z,-1.53
2023-02-05T17:06:00.439Z,-1.45
2023-02-05T17:08:37.502Z,-1.41
2023-02-05T17:11:07.749Z,-1.39
2023-02-05T17:13:42.311Z,-1.30
2023-02-05T17:16:18.974Z,-1.23
2023-02-05T17:19:01.354Z,-1.20
2023-02-05T17:21:34.378Z,-1.19
2023-02-05T17:24:05.357Z,-1.21
2023-02-05T17:26:35.351Z,-1.14
2023-02-05T17:29:07.470Z,-1.11
2023-02-05T17:31:42.550Z,-1.04
2023-02-05T17:34:12.212Z,-1.16
2023-02-05T17:36:39.994Z,-0.97
2023-02-05T17:39:07.544Z,-0.93
2023-02-05T17:41:58.458Z,-0.91
2023-02-05T17:44:37.144Z,-0.87
2023-02-05T17:47:06.903Z,-0.87
2023-02-05T17:49:34.418Z,-0.88
2023-02-05T17:52:02.084Z,-0.88
2023-02-05T17:54:51.388Z,-0.80
2023-02-05T17:57:24.756Z,-0.80
2023-02-05T17:59:52.509Z,-0.78
2023-02-05T18:02:22.965Z,-0.75
2023-02-05T18:04:50.732Z,-0.73
2023-02-05T18:07:36.034Z,-0.75
2023-02-05T18:10:06.157Z,-0.68
2023-02-05T18:12:34.305Z,-0.72
2023-02-05T18:15:01.872Z,-0.77
2023-02-05T18:17:31.164Z,-0.68
2023-02-05T18:19:58.718Z,-0.68
2023-02-05T18:22:26.763Z,-0.70
2023-02-05T18:24:54.412Z,-0.68
2023-02-05T18:27:22.032Z,-0.68
2023-02-05T18:29:49.592Z,-0.72
2023-02-05T18:32:17.188Z,-0.67
2023-02-05T18:34:44.675Z,-0.67
2023-02-05T18:37:14.404Z,-0.65
2023-02-05T18:39:43.946Z,-0.65
2023-02-05T18:42:13.096Z,-0.64
2023-02-05T18:44:43.243Z,-0.65
2023-02-05T18:47:11.716Z,-0.64
2023-02-05T18:49:39.273Z,-0.68
2023-02-05T18:52:07.475Z,-0.64
2023-02-05T18:54:35.069Z,-0.61
2023-02-05T18:57:02.790Z,-0.63
2023-02-05T18:59:30.237Z,-0.64
2023-02-05T19:01:57.816Z,-0.65
2023-02-05T19:04:27.195Z,-0.66
2023-02-05T19:06:55.198Z,-0.62
2023-02-05T19:09:25.433Z,-0.59
2023-02-05T19:11:54.825Z,-0.62
2023-02-05T19:14:24.383Z,-0.63
2023-02-05T19:16:53.316Z,-0.63
2023-02-05T19:19:26.285Z,-0.56
2023-02-05T19:22:02.224Z,-0.60
2023-02-05T19:24:29.996Z,-0.69
2023-02-05T19:26:59.298Z,-0.67
2023-02-05T19:29:27.700Z,-0.68
2023-02-05T19:31:57.515Z,-0.78
2023-02-05T19:34:27.953Z,-0.76
2023-02-05T19:36:55.511Z,-0.75
2023-02-05T19:39:23.158Z,-0.72
2023-02-05T19:41:52.246Z,-0.71
2023-02-05T19:44:20.182Z,-0.68
2023-02-05T19:46:49.123Z,-0.73
2023-02-05T19:49:19.749Z,-0.67
2023-02-05T19:51:49.727Z,-0.71
2023-02-05T19:54:21.152Z,-0.72
2023-02-05T19:56:49.810Z,-0.68
2023-02-05T19:59:17.502Z,-0.67
2023-02-05T20:01:45.993Z,-0.71
2023-02-05T20:04:17.596Z,-0.68
2023-02-05T20:06:46.900Z,-0.89
2023-02-05T20:09:16.358Z,-0.76
2023-02-05T20:11:46.627Z,-0.70
2023-02-05T20:14:15.012Z,-0.72
2023-02-05T20:16:45.392Z,-0.64
2023-02-05T20:19:15.690Z,-0.64
2023-02-05T20:21:43.823Z,-0.68
2023-02-05T20:24:11.679Z,-0.67
2023-02-05T20:26:39.823Z,-0.67
2023-02-05T20:29:26.952Z,-0.68
2023-02-05T20:31:55.263Z,-0.72
2023-02-05T20:34:26.138Z,-0.67
2023-02-05T20:37:04.539Z,-0.65
2023-02-05T20:39:35.088Z,-0.66
2023-02-05T20:42:03.105Z,-0.71
2023-02-05T20:44:36.533Z,-0.66
2023-02-05T20:47:06.131Z,-0.68
2023-02-05T20:49:40.458Z,-0.65
2023-02-05T20:52:09.377Z,-0.69
2023-02-05T20:54:36.947Z,-0.82
2023-02-05T20:57:04.763Z,-0.71
2023-02-05T20:59:33.439Z,-0.70
2023-02-05T21:02:02.921Z,-0.70
2023-02-05T21:04:30.865Z,-0.76
2023-02-05T21:06:58.796Z,-0.73
2023-02-05T21:09:26.373Z,-0.78
2023-02-05T21:11:55.820Z,-0.72
2023-02-05T21:14:24.035Z,-0.72
2023-02-05T21:16:51.656Z,-0.73
2023-02-05T21:19:19.686Z,-0.71
2023-02-05T21:21:47.261Z,-0.70
2023-02-05T21:24:15.711Z,-0.70
2023-02-05T21:26:48.974Z,-0.62
2023-02-05T21:29:19.676Z,-0.60
2023-02-05T21:31:53.400Z,-0.73
2023-02-05T21:34:23.677Z,-0.60
2023-02-05T21:36:51.810Z,-0.61
2023-02-05T21:39:22.406Z,-0.62
2023-02-05T21:41:54.504Z,-0.67
2023-02-05T21:44:22.532Z,-0.62
2023-02-05T21:46:50.170Z,-0.63
2023-02-05T21:49:17.750Z,-0.61
2023-02-05T21:51:45.303Z,-0.59
2023-02-05T21:54:12.801Z,-0.55
2023-02-05T21:56:44.193Z,-0.47
2023-02-05T21:59:13.272Z,-0.48
2023-02-05T22:01:42.738Z,-0.47
2023-02-05T22:04:16.180Z,-0.44
2023-02-05T22:06:44.569Z,-0.43
2023-02-05T22:09:14.397Z,-0.42
2023-02-05T22:11:42.677Z,-0.39
2023-02-05T22:14:11.072Z,-0.37
2023-02-05T22:16:38.943Z,-0.36
2023-02-05T22:19:07.292Z,-0.33
2023-02-05T22:21:40.749Z,-0.27
2023-02-05T22:24:11.370Z,-0.28
2023-02-05T22:26:39.721Z,-0.26
2023-02-05T22:29:09.010Z,-0.25
2023-02-05T22:31:36.813Z,-0.29
2023-02-05T22:34:05.062Z,-0.25
2023-02-05T22:36:34.280Z,-0.25
2023-02-05T22:39:02.649Z,-0.30
2023-02-05T22:41:36.499Z,-0.27
2023-02-05T22:44:05.722Z,-0.26
2023-02-05T22:46:36.145Z,-0.25
2023-02-05T22:49:04.114Z,-0.28
2023-02-05T22:51:34.849Z,-0.31
2023-02-05T22:54:03.287Z,-0.30
2023-02-05T22:56:30.989Z,-0.31
2023-02-05T22:59:01.377Z,-0.32
2023-02-05T23:01:33.549Z,-0.31
2023-02-05T23:04:03.328Z,-0.35
2023-02-05T23:06:36.875Z,-0.31
2023-02-05T23:09:12.422Z,-0.33
2023-02-05T23:11:40.389Z,-0.41
2023-02-05T23:14:08.693Z,-0.44
2023-02-05T23:16:40.711Z,-0.44
2023-02-05T23:19:11.894Z,-0.48
2023-02-05T23:21:40.854Z,-0.57
2023-02-05T23:24:09.450Z,-0.62
2023-02-05T23:26:42.142Z,-0.57
2023-02-05T23:29:12.651Z,-0.55
2023-02-05T23:31:41.014Z,-0.59
2023-02-05T23:34:08.732Z,-0.54
2023-02-05T23:36:36.707Z,-0.56
2023-02-05T23:39:04.818Z,-0.52
2023-02-05T23:41:38.241Z,-0.52
2023-02-05T23:44:12.165Z,-0.43
2023-02-05T23:46:40.512Z,-0.33
2023-02-05T23:49:08.351Z,-0.44
2023-02-05T23:51:36.607Z,-0.50
2023-02-05T23:54:05.715Z,-0.48
2023-02-05T23:56:33.618Z,-0.52
2023-02-05T23:59:01.954Z,-0.50
